Time;durP1;ratioP1;P1;durP2;ratioP2;P2;SDS_P1;SDS_P2;PMS_P1;PMS_P2;Temp;Humidity;BMP_temperature;BMP_pressure;BME280_temperature;BME280_humidity;BME280_pressure;Samples;Min_cycle;Max_cycle;Signal;HPM_P1;HPM_P2
2021/09/14 00:00:16;;;;;;;;;;;21.00;75.40;;;;;;5054271;28;1080;-73
2021/09/14 00:02:41;;;;;;;;;;;21.00;75.50;;;;;;5066231;28;1985;-73
2021/09/14 00:05:07;;;;;;;;;;;21.00;75.50;;;;;;5053563;28;1064;-73
2021/09/14 00:07:32;;;;;;;;;;;21.00;75.40;;;;;;5052907;28;1188;-74
2021/09/14 00:09:57;;;;;;;;;;;21.00;75.50;;;;;;5053620;28;1116;-73
2021/09/14 00:12:23;;;;;;;;;;;21.00;75.50;;;;;;5073938;28;1068;-73
2021/09/14 00:14:49;;;;;;;;;;;21.00;75.50;;;;;;5059947;28;1103;-74
2021/09/14 00:17:14;;;;;;;;;;;21.00;75.50;;;;;;5035166;28;1249;-74
2021/09/14 00:19:39;;;;;;;;;;;21.00;75.50;;;;;;5053324;28;1060;-73
2021/09/14 00:22:05;;;;;;;;;;;21.00;75.50;;;;;;5053291;28;1965;-74
2021/09/14 00:24:30;;;;;;;;;;;21.00;75.50;;;;;;5035290;28;1108;-75
2021/09/14 00:26:56;;;;;;;;;;;21.00;75.50;;;;;;5053076;28;1377;-73
2021/09/14 00:29:21;;;;;;;;;;;21.00;75.50;;;;;;5053044;28;1170;-74
2021/09/14 00:31:46;;;;;;;;;;;21.00;75.50;;;;;;5018425;28;1113;-73
2021/09/14 00:34:12;;;;;;;;;;;21.00;75.50;;;;;;5066660;28;1060;-73
2021/09/14 00:36:37;;;;;;;;;;;21.00;75.50;;;;;;5035099;28;1347;-73
2021/09/14 00:39:03;;;;;;;;;;;21.00;75.50;;;;;;5035283;28;1073;-73
2021/09/14 00:41:28;;;;;;;;;;;21.00;75.50;;;;;;5035320;28;1918;-73
2021/09/14 00:43:57;;;;;;;;;;;21.00;75.50;;;;;;5066416;28;1099;-73
2021/09/14 00:46:22;;;;;;;;;;;21.00;75.50;;;;;;5065729;28;1256;-74
2021/09/14 00:48:48;;;;;;;;;;;21.00;75.50;;;;;;5037294;28;1065;-73
2021/09/14 00:51:13;;;;;;;;;;;21.00;75.50;;;;;;5057245;28;1296;-73
2021/09/14 00:53:38;;;;;;;;;;;21.00;76.30;;;;;;5039242;28;1116;-73
2021/09/14 00:56:05;;;;;;;;;;;21.00;75.50;;;;;;5038550;28;1191;-73
2021/09/14 00:58:30;;;;;;;;;;;21.00;75.50;;;;;;5019421;28;1264;-73
2021/09/14 01:00:56;;;;;;;;;;;21.00;75.50;;;;;;5038288;28;1105;-74
2021/09/14 01:03:21;;;;;;;;;;;21.00;75.50;;;;;;5056695;28;1902;-73
2021/09/14 01:05:47;;;;;;;;;;;21.00;75.50;;;;;;5038480;28;1124;-74
2021/09/14 01:08:12;;;;;;;;;;;21.00;75.60;;;;;;5056775;28;1320;-75
2021/09/14 01:10:37;;;;;;;;;;;21.00;75.60;;;;;;5058027;28;1016;-73
2021/09/14 01:13:03;;;;;;;;;;;21.00;75.60;;;;;;5046631;28;1096;-74
2021/09/14 01:15:28;;;;;;;;;;;21.00;75.60;;;;;;5056240;28;1178;-74
2021/09/14 01:17:54;;;;;;;;;;;21.00;75.50;;;;;;5038197;28;1197;-74
2021/09/14 01:20:19;;;;;;;;;;;21.00;75.50;;;;;;5056718;28;1203;-73
2021/09/14 01:22:45;;;;;;;;;;;21.00;75.60;;;;;;5038475;28;1890;-73
2021/09/14 01:25:20;;;;;;;;;;;21.00;75.60;;;;;;5061270;28;1190;-73
2021/09/14 01:27:46;;;;;;;;;;;21.00;75.60;;;;;;5044911;28;1204;-73
2021/09/14 01:30:18;;;;;;;;;;;21.00;75.60;;;;;;5056180;28;1135;-74
2021/09/14 01:32:44;;;;;;;;;;;21.00;75.60;;;;;;5052739;28;1139;-73
2021/09/14 01:35:11;;;;;;;;;;;21.00;75.60;;;;;;5038226;28;1092;-73
2021/09/14 01:37:36;;;;;;;;;;;21.00;75.60;;;;;;5038817;28;1288;-73
2021/09/14 01:40:02;;;;;;;;;;;21.00;75.60;;;;;;5051250;28;1068;-73
2021/09/14 01:42:27;;;;;;;;;;;21.00;75.60;;;;;;5055607;28;1918;-74
2021/09/14 01:44:53;;;;;;;;;;;21.00;76.30;;;;;;5055696;28;1064;-73
2021/09/14 01:47:18;;;;;;;;;;;21.00;75.60;;;;;;5055276;28;1320;-73
2021/09/14 01:49:43;;;;;;;;;;;21.00;75.60;;;;;;5037906;28;1186;-73
2021/09/14 01:52:09;;;;;;;;;;;21.00;75.60;;;;;;5037936;28;1112;-73
2021/09/14 01:54:34;;;;;;;;;;;21.00;75.60;;;;;;5055516;28;1057;-74
2021/09/14 01:57:00;;;;;;;;;;;21.00;75.60;;;;;;5055272;28;1274;-74
2021/09/14 01:59:26;;;;;;;;;;;21.00;75.60;;;;;;5036905;28;1295;-73
2021/09/14 02:02:15;;;;;;;;;;;21.00;75.60;;;;;;5055624;28;1902;-73
2021/09/14 02:04:48;;;;;;;;;;;21.00;75.60;;;;;;5064828;28;1071;-74
2021/09/14 02:42:21;;;;;;;;;;;21.00;75.70;;;;;;5055361;28;1902;-74
2021/09/14 02:45:03;;;;;;;;;;;21.00;75.70;;;;;;5041602;28;1061;-74
2021/09/14 02:58:40;;;;;;;;;;;21.00;75.70;;;;;;5039390;28;1370;-74
2021/09/14 03:01:07;;;;;;;;;;;21.00;75.70;;;;;;5039442;28;1073;-73
2021/09/14 03:03:32;;;;;;;;;;;21.00;75.70;;;;;;5036720;28;1174;-73
2021/09/14 03:05:57;;;;;;;;;;;21.00;75.70;;;;;;5054221;28;1331;-73
2021/09/14 03:08:23;;;;;;;;;;;21.00;75.70;;;;;;5054197;28;1208;-73
2021/09/14 03:10:48;;;;;;;;;;;21.00;75.70;;;;;;5054366;28;1135;-73
2021/09/14 03:13:14;;;;;;;;;;;21.00;75.70;;;;;;5054299;28;1120;-72
2021/09/14 03:15:39;;;;;;;;;;;21.00;75.70;;;;;;5053994;28;1076;-74
2021/09/14 03:18:05;;;;;;;;;;;21.00;75.70;;;;;;5054007;28;1273;-73
2021/09/14 03:20:30;;;;;;;;;;;21.00;75.70;;;;;;5054171;28;1238;-73
2021/09/14 03:22:55;;;;;;;;;;;21.00;75.70;;;;;;5053911;28;1964;-74
2021/09/14 03:25:21;;;;;;;;;;;21.00;75.70;;;;;;5053923;28;1199;-75
2021/09/14 03:27:47;;;;;;;;;;;21.00;75.70;;;;;;5053726;28;1209;-74
2021/09/14 03:30:12;;;;;;;;;;;21.00;75.80;;;;;;5053444;28;1108;-74
2021/09/14 03:32:38;;;;;;;;;;;21.00;75.70;;;;;;5035468;28;1132;-74
2021/09/14 03:35:04;;;;;;;;;;;21.00;75.70;;;;;;5035626;28;1473;-74
2021/09/14 03:37:29;;;;;;;;;;;21.00;75.70;;;;;;5052796;28;1346;-74
2021/09/14 03:39:55;;;;;;;;;;;21.00;75.70;;;;;;5055180;28;1148;-74
2021/09/14 03:42:20;;;;;;;;;;;21.00;75.70;;;;;;5042552;28;1960;-74
2021/09/14 03:44:45;;;;;;;;;;;21.00;75.70;;;;;;5052997;28;1116;-74
2021/09/14 03:47:11;;;;;;;;;;;21.00;75.70;;;;;;5052907;28;1268;-74
2021/09/14 03:49:36;;;;;;;;;;;21.00;75.70;;;;;;5034902;28;1446;-74
2021/09/14 03:52:02;;;;;;;;;;;21.00;75.70;;;;;;5035139;28;1073;-74
2021/09/14 03:54:27;;;;;;;;;;;21.00;75.70;;;;;;5035045;28;1151;-74
2021/09/14 03:56:53;;;;;;;;;;;21.00;75.70;;;;;;5052539;28;1286;-74
2021/09/14 03:59:18;;;;;;;;;;;21.00;76.50;;;;;;5052906;28;1349;-74
2021/09/14 04:01:50;;;;;;;;;;;21.00;75.70;;;;;;5052824;28;1941;-73
2021/09/14 04:04:21;;;;;;;;;;;21.00;75.80;;;;;;5052742;28;1040;-74
2021/09/14 04:09:30;;;;;;;;;;;21.00;75.80;;;;;;5052945;28;1229;-74
2021/09/14 04:11:55;;;;;;;;;;;21.00;75.80;;;;;;5052723;28;1095;-74
2021/09/14 04:14:21;;;;;;;;;;;21.00;75.80;;;;;;5044949;28;839;-74
2021/09/14 04:16:46;;;;;;;;;;;20.90;75.70;;;;;;5069165;28;1338;-74
2021/09/14 04:19:12;;;;;;;;;;;21.00;75.80;;;;;;5052545;28;1084;-74
2021/09/14 04:21:37;;;;;;;;;;;21.00;75.70;;;;;;5052767;28;1898;-74
2021/09/14 04:24:03;;;;;;;;;;;21.00;75.80;;;;;;5054974;28;1241;-74
2021/09/14 04:26:28;;;;;;;;;;;21.00;75.80;;;;;;5056243;28;1265;-74
2021/09/14 04:28:53;;;;;;;;;;;21.00;75.80;;;;;;5056805;28;1080;-74
2021/09/14 04:31:19;;;;;;;;;;;21.00;75.80;;;;;;5056537;28;1158;-74
2021/09/14 04:33:44;;;;;;;;;;;21.00;75.80;;;;;;5056675;28;1370;-73
2021/09/14 04:36:10;;;;;;;;;;;21.00;75.80;;;;;;5056242;28;1219;-74
2021/09/14 04:38:36;;;;;;;;;;;21.00;75.80;;;;;;5056636;28;1076;-74
2021/09/14 04:41:01;;;;;;;;;;;20.90;75.80;;;;;;5056519;28;1009;-74
2021/09/14 04:43:27;;;;;;;;;;;20.90;75.70;;;;;;5038519;28;1906;-74
2021/09/14 04:45:52;;;;;;;;;;;20.90;75.70;;;;;;5056087;28;1128;-74
2021/09/14 04:48:18;;;;;;;;;;;20.90;75.70;;;;;;5056470;28;1414;-74
2021/09/14 04:50:43;;;;;;;;;;;21.00;75.90;;;;;;5038619;28;1289;-74
2021/09/14 04:53:09;;;;;;;;;;;21.00;75.80;;;;;;5056283;28;1146;-74
2021/09/14 04:55:34;;;;;;;;;;;21.00;75.80;;;;;;5055970;28;1163;-74
2021/09/14 04:57:59;;;;;;;;;;;21.00;75.80;;;;;;5055960;28;1203;-74
2021/09/14 05:00:25;;;;;;;;;;;21.00;75.80;;;;;;5056020;28;1104;-74
2021/09/14 05:02:50;;;;;;;;;;;20.90;75.80;;;;;;5038309;28;1965;-74
2021/09/14 05:05:16;;;;;;;;;;;21.00;75.80;;;;;;5056308;28;1305;-74
2021/09/14 05:07:41;;;;;;;;;;;21.00;75.80;;;;;;5055723;28;1208;-74
2021/09/14 05:10:07;;;;;;;;;;;21.00;75.80;;;;;;5055900;28;1048;-74
2021/09/14 05:12:32;;;;;;;;;;;20.90;75.80;;;;;;5056096;28;1068;-74
2021/09/14 05:14:58;;;;;;;;;;;20.90;75.80;;;;;;5055580;28;1139;-73
2021/09/14 05:17:23;;;;;;;;;;;21.00;75.80;;;;;;5037761;28;1317;-74
2021/09/14 05:19:50;;;;;;;;;;;21.00;75.80;;;;;;5055656;28;1048;-74
2021/09/14 05:22:20;;;;;;;;;;;20.90;75.80;;;;;;5055881;28;1906;-74
2021/09/14 05:24:45;;;;;;;;;;;21.00;75.80;;;;;;5055515;28;1135;-73
2021/09/14 05:27:10;;;;;;;;;;;21.00;75.80;;;;;;5036921;28;1328;-74
2021/09/14 05:29:36;;;;;;;;;;;20.90;75.80;;;;;;5055486;28;1068;-74
2021/09/14 05:32:01;;;;;;;;;;;20.90;75.80;;;;;;5074693;28;1056;-73
2021/09/14 05:34:27;;;;;;;;;;;20.90;75.70;;;;;;5055944;28;1285;-73
2021/09/14 05:36:53;;;;;;;;;;;21.00;75.80;;;;;;5074135;28;1274;-73
2021/09/14 05:39:18;;;;;;;;;;;20.90;75.80;;;;;;5074512;28;1166;-74
2021/09/14 05:41:44;;;;;;;;;;;20.90;75.80;;;;;;5074808;28;1982;-74
2021/09/14 05:44:09;;;;;;;;;;;20.90;75.80;;;;;;5072861;28;1110;-74
2021/09/14 05:46:36;;;;;;;;;;;20.90;75.80;;;;;;5052786;28;1284;-74
2021/09/14 05:49:02;;;;;;;;;;;21.00;75.80;;;;;;5053542;28;1347;-74
2021/09/14 05:51:27;;;;;;;;;;;20.90;75.80;;;;;;5052236;28;1352;-74
2021/09/14 05:53:53;;;;;;;;;;;21.00;75.90;;;;;;5035578;28;1099;-74
2021/09/14 05:56:18;;;;;;;;;;;20.90;75.80;;;;;;5034951;28;1335;-74
2021/09/14 05:58:44;;;;;;;;;;;20.90;75.80;;;;;;5035116;28;1184;-74
2021/09/14 06:01:09;;;;;;;;;;;21.00;75.80;;;;;;5016383;28;1421;-73
2021/09/14 06:03:34;;;;;;;;;;;21.00;75.90;;;;;;5048231;28;1898;-74
2021/09/14 06:06:00;;;;;;;;;;;20.90;75.80;;;;;;5061180;28;1064;-74
2021/09/14 06:08:26;;;;;;;;;;;21.00;75.90;;;;;;5073707;28;1215;-74
2021/09/14 06:10:51;;;;;;;;;;;20.90;75.80;;;;;;5056051;28;1131;-74
2021/09/14 06:13:16;;;;;;;;;;;20.90;75.80;;;;;;5073524;28;1321;-73
2021/09/14 06:15:42;;;;;;;;;;;20.90;75.80;;;;;;5055717;28;1055;-74
2021/09/14 06:18:07;;;;;;;;;;;20.90;75.80;;;;;;5055600;28;1302;-73
2021/09/14 06:20:33;;;;;;;;;;;20.90;75.80;;;;;;5055885;28;1315;-73
2021/09/14 06:22:58;;;;;;;;;;;20.90;75.80;;;;;;5073462;28;1949;-73
2021/09/14 06:25:24;;;;;;;;;;;20.90;75.80;;;;;;5056830;28;1170;-73
2021/09/14 06:27:49;;;;;;;;;;;20.90;75.80;;;;;;5018780;28;1006560;-74
2021/09/14 06:30:15;;;;;;;;;;;20.90;75.80;;;;;;5054564;28;1357;-74
2021/09/14 06:32:40;;;;;;;;;;;20.90;75.80;;;;;;5054552;28;1127;-74
2021/09/14 06:35:06;;;;;;;;;;;20.90;75.80;;;;;;5054365;28;1303;-73
2021/09/14 06:37:31;;;;;;;;;;;20.90;75.80;;;;;;5054526;28;1348;-73
2021/09/14 06:39:57;;;;;;;;;;;21.00;75.90;;;;;;5054300;28;1190;-73
2021/09/14 06:42:24;;;;;;;;;;;20.90;75.80;;;;;;5054198;28;1973;-74
2021/09/14 06:44:49;;;;;;;;;;;20.90;75.80;;;;;;5036188;28;1152;-73
2021/09/14 06:47:15;;;;;;;;;;;20.90;75.90;;;;;;5053352;28;1393;-72
2021/09/14 06:49:40;;;;;;;;;;;20.90;75.70;;;;;;5036354;28;1043;-72
2021/09/14 06:52:06;;;;;;;;;;;20.90;74.40;;;;;;5032283;28;1858;-73
2021/09/14 06:54:31;;;;;;;;;;;20.90;73.90;;;;;;5028828;28;1945;-74
2021/09/14 06:56:57;;;;;;;;;;;20.90;73.60;;;;;;5060923;28;1361;-74
2021/09/14 06:59:22;;;;;;;;;;;20.90;72.80;;;;;;5053629;28;1167;-74
2021/09/14 07:01:48;;;;;;;;;;;20.90;72.40;;;;;;5036131;28;1899;-74
2021/09/14 07:04:14;;;;;;;;;;;20.90;72.50;;;;;;5053720;28;1327;-74
2021/09/14 07:06:40;;;;;;;;;;;20.90;72.20;;;;;;5053699;28;1289;-74
2021/09/14 07:09:06;;;;;;;;;;;20.90;71.70;;;;;;5053665;28;1423;-74
2021/09/14 07:11:32;;;;;;;;;;;20.90;71.30;;;;;;5053703;28;1355;-74
2021/09/14 07:13:58;;;;;;;;;;;20.90;71.30;;;;;;5035871;28;1308;-73
2021/09/14 07:16:23;;;;;;;;;;;20.90;71.20;;;;;;5035795;28;1316;-73
2021/09/14 07:18:49;;;;;;;;;;;20.90;71.00;;;;;;5053742;28;1468;-74
2021/09/14 07:21:14;;;;;;;;;;;20.90;71.00;;;;;;5053734;28;1140;-73
2021/09/14 07:23:40;;;;;;;;;;;20.90;70.80;;;;;;5070419;28;1890;-74
2021/09/14 07:26:05;;;;;;;;;;;20.90;70.40;;;;;;5053136;28;1337;-74
2021/09/14 07:28:30;;;;;;;;;;;20.90;70.40;;;;;;5053236;28;1379;-74
2021/09/14 07:30:56;;;;;;;;;;;20.90;70.80;;;;;;5035727;28;1140;-74
2021/09/14 07:33:21;;;;;;;;;;;20.90;70.80;;;;;;5053310;28;1319;-74
2021/09/14 07:35:47;;;;;;;;;;;20.90;70.70;;;;;;5053033;28;1307;-74
2021/09/14 07:38:12;;;;;;;;;;;20.80;70.80;;;;;;5053096;28;1314;-75
2021/09/14 07:40:38;;;;;;;;;;;20.80;70.20;;;;;;5035517;28;1276;-74
2021/09/14 07:43:03;;;;;;;;;;;20.90;69.80;;;;;;5035089;28;1965;-74
2021/09/14 07:45:29;;;;;;;;;;;20.80;69.10;;;;;;5035177;28;1288;-74
2021/09/14 07:47:54;;;;;;;;;;;20.80;69.20;;;;;;5071480;28;1398;-74
2021/09/14 07:50:21;;;;;;;;;;;20.90;69.20;;;;;;5060921;28;1216;-74
2021/09/14 07:52:47;;;;;;;;;;;20.90;68.60;;;;;;5035128;28;1252;-74
2021/09/14 07:55:12;;;;;;;;;;;20.90;69.80;;;;;;5034994;28;1189;-74
2021/09/14 07:57:38;;;;;;;;;;;20.80;69.20;;;;;;5052357;28;1301;-74
2021/09/14 08:00:03;;;;;;;;;;;20.80;69.10;;;;;;5052933;28;1266;-74
2021/09/14 08:02:29;;;;;;;;;;;20.80;69.10;;;;;;5035127;28;1906;-74
2021/09/14 08:04:54;;;;;;;;;;;20.80;69.30;;;;;;5034909;28;1206;-74
2021/09/14 08:07:19;;;;;;;;;;;20.80;69.60;;;;;;5065971;28;1390;-73
2021/09/14 08:09:45;;;;;;;;;;;20.90;69.50;;;;;;5052801;28;1096;-74
2021/09/14 08:12:10;;;;;;;;;;;20.80;69.50;;;;;;5045216;28;1640;-76
2021/09/14 08:14:36;;;;;;;;;;;20.80;68.80;;;;;;5064405;28;1052;-73
2021/09/14 08:17:01;;;;;;;;;;;20.80;68.90;;;;;;5054383;28;1347;-73
2021/09/14 08:19:27;;;;;;;;;;;20.80;69.50;;;;;;5034900;28;1085;-76
2021/09/14 08:21:53;;;;;;;;;;;20.80;69.20;;;;;;5034840;28;1965;-73
2021/09/14 08:24:19;;;;;;;;;;;20.80;69.40;;;;;;5035020;28;1061;-73
2021/09/14 08:26:44;;;;;;;;;;;20.80;69.10;;;;;;5052081;28;1293;-74
2021/09/14 08:29:10;;;;;;;;;;;20.80;69.50;;;;;;5052666;28;1056;-74
2021/09/14 08:31:35;;;;;;;;;;;20.80;69.40;;;;;;5057125;28;1077;-76
2021/09/14 08:34:01;;;;;;;;;;;20.80;69.10;;;;;;5061723;28;1119;-74
2021/09/14 08:36:26;;;;;;;;;;;20.80;68.90;;;;;;5034404;28;1286;-73
2021/09/14 08:38:52;;;;;;;;;;;20.80;68.90;;;;;;5052587;28;1132;-74
2021/09/14 08:41:17;;;;;;;;;;;20.80;69.10;;;;;;5052594;28;1088;-73
2021/09/14 08:43:44;;;;;;;;;;;20.80;68.90;;;;;;5045476;28;1965;-73
2021/09/14 08:46:11;;;;;;;;;;;20.80;67.90;;;;;;5039875;28;2062;-74
2021/09/14 08:48:36;;;;;;;;;;;20.80;67.90;;;;;;5032701;28;1312;-75
2021/09/14 08:51:02;;;;;;;;;;;20.80;67.20;;;;;;5050652;28;1280;-74
2021/09/14 08:53:28;;;;;;;;;;;20.80;67.20;;;;;;5034636;28;1148;-73
2021/09/14 08:55:53;;;;;;;;;;;20.80;67.50;;;;;;5034052;28;1096;-73
2021/09/14 08:58:19;;;;;;;;;;;20.80;67.80;;;;;;5052287;28;1176;-74
2021/09/14 09:00:44;;;;;;;;;;;20.80;68.10;;;;;;5056684;28;1104;-73
2021/09/14 09:03:10;;;;;;;;;;;20.80;68.10;;;;;;5043629;28;1898;-73
2021/09/14 09:05:38;;;;;;;;;;;20.80;68.20;;;;;;5034352;28;1140;-73
2021/09/14 09:08:14;;;;;;;;;;;20.80;68.10;;;;;;5034547;28;1276;-74
2021/09/14 09:10:40;;;;;;;;;;;20.80;66.90;;;;;;5037369;28;1139;-73
2021/09/14 09:13:05;;;;;;;;;;;20.80;67.30;;;;;;5055918;28;1060;-74
2021/09/14 09:15:33;;;;;;;;;;;20.80;67.60;;;;;;5038164;28;1270;-73
2021/09/14 09:18:02;;;;;;;;;;;20.80;68.00;;;;;;5038322;28;1191;-74
2021/09/14 09:20:27;;;;;;;;;;;20.80;68.10;;;;;;5061056;28;1148;-74
2021/09/14 09:22:59;;;;;;;;;;;20.80;68.30;;;;;;5063924;28;1894;-73
2021/09/14 09:25:25;;;;;;;;;;;20.80;68.60;;;;;;5037739;28;1294;-73
2021/09/14 09:27:51;;;;;;;;;;;20.80;68.40;;;;;;5067782;23;1668;-64
2021/09/14 09:30:18;;;;;;;;;;;20.80;68.70;;;;;;5023470;28;1317;-64
2021/09/14 09:32:47;;;;;;;;;;;20.80;68.60;;;;;;5035805;28;1292;-64
2021/09/14 09:35:23;;;;;;;;;;;20.80;68.00;;;;;;5035491;28;1139;-64
2021/09/14 09:37:52;;;;;;;;;;;20.80;68.50;;;;;;5035332;28;1371;-64
2021/09/14 09:40:24;;;;;;;;;;;20.80;68.50;;;;;;5035568;28;1380;-64
2021/09/14 09:42:49;;;;;;;;;;;20.80;68.10;;;;;;5035508;28;1910;-64
2021/09/14 09:45:18;;;;;;;;;;;20.80;68.10;;;;;;5035518;28;1006;-64
2021/09/14 09:47:44;;;;;;;;;;;20.80;68.20;;;;;;5017409;28;1359;-64
2021/09/14 09:50:10;;;;;;;;;;;20.80;67.60;;;;;;5017548;28;1191;-64
2021/09/14 09:52:37;;;;;;;;;;;20.80;67.70;;;;;;5017712;28;1073;-64
2021/09/14 09:55:03;;;;;;;;;;;20.80;68.10;;;;;;5035205;28;1060;-64
2021/09/14 09:57:28;;;;;;;;;;;20.80;67.70;;;;;;5034900;28;1387;-64
2021/09/14 09:59:54;;;;;;;;;;;20.80;67.70;;;;;;5017905;28;1293;-64
2021/09/14 10:02:21;;;;;;;;;;;20.80;68.30;;;;;;5017244;28;1968;-64
2021/09/14 10:04:57;;;;;;;;;;;20.90;68.00;;;;;;5034857;28;1088;-64
2021/09/14 10:07:28;;;;;;;;;;;20.90;67.60;;;;;;5034774;28;1373;-64
2021/09/14 10:09:56;;;;;;;;;;;20.90;67.90;;;;;;5017426;28;1277;-64
2021/09/14 10:12:32;;;;;;;;;;;20.90;68.30;;;;;;5035004;28;1309;-64
2021/09/14 10:14:57;;;;;;;;;;;20.90;66.50;;;;;;5031545;28;1855;-64
2021/09/14 10:17:23;;;;;;;;;;;20.90;66.60;;;;;;5026155;28;1849;-64
2021/09/14 10:19:48;;;;;;;;;;;20.90;66.20;;;;;;5026283;28;1320;-64
2021/09/14 10:22:20;;;;;;;;;;;20.90;65.50;;;;;;5025673;28;1894;-64
2021/09/14 10:24:49;;;;;;;;;;;20.90;65.70;;;;;;5019644;28;1242;-64
2021/09/14 10:27:15;;;;;;;;;;;20.90;65.50;;;;;;5026238;28;1292;-64
2021/09/14 10:29:41;;;;;;;;;;;21.00;65.40;;;;;;5024448;28;1124;-64
2021/09/14 10:32:07;;;;;;;;;;;21.00;65.50;;;;;;5015162;28;1838;-64
2021/09/14 10:34:33;;;;;;;;;;;21.00;65.90;;;;;;5013270;28;1883;-64
2021/09/14 10:37:05;;;;;;;;;;;21.00;66.10;;;;;;5034105;28;1527;-64
2021/09/14 10:39:35;;;;;;;;;;;21.00;66.10;;;;;;5026599;28;1948;-64
2021/09/14 10:42:00;;;;;;;;;;;21.00;66.30;;;;;;5027355;28;2150;-64
2021/09/14 10:44:30;;;;;;;;;;;21.00;66.80;;;;;;5014850;28;1594;-64
2021/09/14 10:47:05;;;;;;;;;;;21.00;67.20;;;;;;5031103;28;1397;-64
2021/09/14 10:49:43;;;;;;;;;;;21.00;67.00;;;;;;5034175;28;1329;-64
2021/09/14 10:52:09;;;;;;;;;;;21.00;67.10;;;;;;5034433;28;1257;-65
2021/09/14 10:54:41;;;;;;;;;;;21.00;67.20;;;;;;5033884;28;1290;-65
2021/09/14 10:57:07;;;;;;;;;;;21.00;67.50;;;;;;5028286;28;1356;-64
2021/09/14 10:59:32;;;;;;;;;;;21.00;67.50;;;;;;5034013;28;1351;-65
2021/09/14 11:01:57;;;;;;;;;;;21.00;67.30;;;;;;5034154;28;1953;-65
2021/09/14 11:04:29;;;;;;;;;;;21.00;67.20;;;;;;5033976;28;1396;-64
2021/09/14 11:06:54;;;;;;;;;;;21.00;66.70;;;;;;5033528;28;1267;-65
2021/09/14 11:09:19;;;;;;;;;;;21.00;66.20;;;;;;5033729;28;1264;-65
2021/09/14 11:11:49;;;;;;;;;;;21.00;65.90;;;;;;5016022;28;1352;-65
2021/09/14 11:14:14;;;;;;;;;;;21.10;66.30;;;;;;5033857;28;1337;-65
2021/09/14 11:16:40;;;;;;;;;;;21.10;66.40;;;;;;5033303;28;1288;-65
2021/09/14 11:19:05;;;;;;;;;;;21.10;66.70;;;;;;5033637;28;1291;-65
2021/09/14 11:21:30;;;;;;;;;;;21.10;66.80;;;;;;5033899;28;1898;-65
2021/09/14 11:23:56;;;;;;;;;;;21.00;66.20;;;;;;5028824;28;1282;-64
2021/09/14 11:26:21;;;;;;;;;;;21.00;66.80;;;;;;5010488;28;1542;-65
2021/09/14 11:28:59;;;;;;;;;;;21.00;66.60;;;;;;5033430;28;1353;-64
2021/09/14 11:31:25;;;;;;;;;;;21.00;67.00;;;;;;5033413;28;1305;-64
2021/09/14 11:33:50;;;;;;;;;;;21.00;66.70;;;;;;5033245;28;1291;-64
2021/09/14 11:36:16;;;;;;;;;;;21.00;66.40;;;;;;5015299;28;1231;-65
2021/09/14 11:38:41;;;;;;;;;;;21.10;66.60;;;;;;5015588;28;1356;-64
2021/09/14 11:41:07;;;;;;;;;;;21.10;66.60;;;;;;5033356;28;1382;-64
2021/09/14 11:43:33;;;;;;;;;;;21.10;65.30;;;;;;5033190;28;1981;-65
2021/09/14 11:45:59;;;;;;;;;;;21.10;65.60;;;;;;5015372;28;1355;-64
2021/09/14 11:48:30;;;;;;;;;;;21.10;64.60;;;;;;5033200;28;1316;-65
2021/09/14 11:51:08;;;;;;;;;;;21.10;64.30;;;;;;5032990;28;1292;-65
2021/09/14 11:53:34;;;;;;;;;;;21.10;64.70;;;;;;5033168;28;1351;-64
2021/09/14 11:55:59;;;;;;;;;;;21.10;65.10;;;;;;5032675;28;1322;-64
2021/09/14 11:58:32;;;;;;;;;;;21.10;65.60;;;;;;5028555;28;1964;-64
2021/09/14 12:01:00;;;;;;;;;;;21.10;65.00;;;;;;5019355;28;1350;-63
2021/09/14 12:03:33;;;;;;;;;;;21.10;65.30;;;;;;5008371;28;1977;-64
2021/09/14 12:05:58;;;;;;;;;;;21.10;65.40;;;;;;5032829;28;1305;-63
2021/09/14 12:08:27;;;;;;;;;;;21.10;65.30;;;;;;5032664;28;1330;-63
2021/09/14 12:10:53;;;;;;;;;;;21.10;65.40;;;;;;5032757;28;1131;-63
2021/09/14 12:13:18;;;;;;;;;;;21.10;65.40;;;;;;5031780;28;1316;-64
2021/09/14 12:15:45;;;;;;;;;;;21.10;65.40;;;;;;5031896;28;1314;-64
2021/09/14 12:18:14;;;;;;;;;;;21.10;65.00;;;;;;5031884;28;1409;-64
2021/09/14 12:20:40;;;;;;;;;;;21.10;65.30;;;;;;5026784;28;1099;-64
2021/09/14 12:23:05;;;;;;;;;;;21.00;65.60;;;;;;5028554;28;1902;-63
2021/09/14 12:25:30;;;;;;;;;;;21.00;65.80;;;;;;5021396;28;1143;-64
2021/09/14 12:27:56;;;;;;;;;;;21.00;65.60;;;;;;5030301;28;1369;-64
2021/09/14 12:30:21;;;;;;;;;;;21.00;65.10;;;;;;5030892;28;1344;-64
2021/09/14 12:32:47;;;;;;;;;;;21.10;65.40;;;;;;5032745;28;1243;-64
2021/09/14 12:35:12;;;;;;;;;;;21.00;65.50;;;;;;5032634;28;1312;-64
2021/09/14 12:37:38;;;;;;;;;;;21.00;65.50;;;;;;5013750;28;1368;-63
2021/09/14 12:40:03;;;;;;;;;;;21.10;65.70;;;;;;5030751;28;1352;-63
2021/09/14 12:42:29;;;;;;;;;;;21.00;66.20;;;;;;5032489;28;1934;-63
2021/09/14 12:44:56;;;;;;;;;;;21.00;66.40;;;;;;5033613;28;1541;-64
2021/09/14 12:47:22;;;;;;;;;;;21.00;66.50;;;;;;5036484;28;1428;-63
2021/09/14 12:49:47;;;;;;;;;;;21.00;66.60;;;;;;5036741;28;1823;-63
2021/09/14 12:52:12;;;;;;;;;;;21.00;67.10;;;;;;5036625;28;1472;-63
2021/09/14 12:54:38;;;;;;;;;;;21.00;67.20;;;;;;5036443;28;1209;-63
2021/09/14 12:57:03;;;;;;;;;;;21.00;67.30;;;;;;5036116;28;1571;-63
2021/09/14 12:59:29;;;;;;;;;;;21.00;67.40;;;;;;5036254;28;1654;-63
2021/09/14 13:01:54;;;;;;;;;;;21.00;67.70;;;;;;5036371;28;1902;-63
2021/09/14 13:04:20;;;;;;;;;;;21.00;67.60;;;;;;5036499;28;1338;-63
2021/09/14 13:06:45;;;;;;;;;;;21.00;67.80;;;;;;5035942;28;1683;-63
2021/09/14 13:09:10;;;;;;;;;;;21.00;67.70;;;;;;5035207;28;1557;-63
2021/09/14 13:11:36;;;;;;;;;;;21.00;67.60;;;;;;5036145;28;1285;-63
2021/09/14 13:16:45;;;;;;;;;;;21.00;67.40;;;;;;5035737;28;1395;-63
2021/09/14 13:19:11;;;;;;;;;;;21.00;67.40;;;;;;5035839;28;1338;-63
2021/09/14 13:21:36;;;;;;;;;;;21.00;67.80;;;;;;5036194;28;1902;-63
2021/09/14 13:24:02;;;;;;;;;;;21.00;67.60;;;;;;5035807;28;1286;-64
2021/09/14 13:26:27;;;;;;;;;;;21.00;67.50;;;;;;5035501;28;1439;-63
2021/09/14 13:28:53;;;;;;;;;;;21.00;67.50;;;;;;5035345;28;1339;-64
2021/09/14 13:31:18;;;;;;;;;;;21.00;67.30;;;;;;5035791;28;1468;-63
2021/09/14 13:33:44;;;;;;;;;;;21.00;67.60;;;;;;5035853;28;1272;-63
2021/09/14 13:36:10;;;;;;;;;;;21.00;67.20;;;;;;5035429;28;1280;-63
2021/09/14 13:38:35;;;;;;;;;;;21.00;67.30;;;;;;5035674;28;1348;-63
2021/09/14 13:41:06;;;;;;;;;;;21.00;67.90;;;;;;5035417;28;1385;-63
2021/09/14 13:46:14;;;;;;;;;;;21.00;67.20;;;;;;5034628;28;1284;-63
2021/09/14 13:48:52;;;;;;;;;;;21.00;67.00;;;;;;5035492;28;1280;-63
2021/09/14 13:51:19;;;;;;;;;;;21.00;66.50;;;;;;5029278;28;1385;-62
2021/09/14 13:53:45;;;;;;;;;;;21.00;67.10;;;;;;5016528;28;1278;-63
2021/09/14 13:56:11;;;;;;;;;;;21.00;67.10;;;;;;5011433;28;1021;-63
2021/09/14 13:58:36;;;;;;;;;;;21.00;67.10;;;;;;5017476;28;1298;-63
2021/09/14 14:01:01;;;;;;;;;;;21.00;67.10;;;;;;5035461;28;1404;-63
2021/09/14 14:03:27;;;;;;;;;;;21.00;67.20;;;;;;5035183;28;1943;-63
2021/09/14 14:05:52;;;;;;;;;;;21.00;67.30;;;;;;5034728;28;1241;-63
2021/09/14 14:08:18;;;;;;;;;;;21.00;67.20;;;;;;5017338;28;1325;-63
2021/09/14 14:10:43;;;;;;;;;;;21.00;66.80;;;;;;5034976;28;1349;-64
2021/09/14 14:13:09;;;;;;;;;;;21.00;66.90;;;;;;5034987;28;1396;-63
2021/09/14 14:15:34;;;;;;;;;;;21.00;67.00;;;;;;5034647;28;1386;-63
2021/09/14 14:17:59;;;;;;;;;;;21.00;66.90;;;;;;5034818;28;1341;-63
2021/09/14 14:20:25;;;;;;;;;;;21.00;67.10;;;;;;5034734;28;1410;-62
2021/09/14 14:22:50;;;;;;;;;;;21.00;67.50;;;;;;5034815;28;1906;-63
2021/09/14 14:25:16;;;;;;;;;;;21.00;67.60;;;;;;5034572;28;1430;-63
2021/09/14 14:27:41;;;;;;;;;;;21.00;67.10;;;;;;5034450;28;1328;-64
2021/09/14 14:30:07;;;;;;;;;;;21.00;67.10;;;;;;5034588;28;1356;-64
2021/09/14 14:32:32;;;;;;;;;;;21.00;67.40;;;;;;5034734;28;1070;-65
2021/09/14 14:34:58;;;;;;;;;;;21.10;67.70;;;;;;5034523;28;1392;-66
2021/09/14 14:37:23;;;;;;;;;;;21.10;69.30;;;;;;5034346;28;1271;-64
2021/09/14 14:39:49;;;;;;;;;;;21.20;68.00;;;;;;5034362;28;1301;-65
2021/09/14 14:42:14;;;;;;;;;;;21.20;68.20;;;;;;5034704;28;1906;-65
2021/09/14 14:44:40;;;;;;;;;;;21.20;69.10;;;;;;5034474;28;1282;-66
2021/09/14 14:47:05;;;;;;;;;;;21.30;68.60;;;;;;5034086;28;1331;-66
2021/09/14 14:49:30;;;;;;;;;;;21.30;67.70;;;;;;5034300;28;1383;-66
2021/09/14 14:51:56;;;;;;;;;;;21.30;67.50;;;;;;5034114;28;1073;-66
2021/09/14 14:54:21;;;;;;;;;;;21.30;66.90;;;;;;5034053;28;1311;-66
2021/09/14 14:56:47;;;;;;;;;;;21.30;67.20;;;;;;5033961;28;1227;-66
2021/09/14 14:59:12;;;;;;;;;;;21.20;66.80;;;;;;5034020;28;1334;-65
2021/09/14 15:01:38;;;;;;;;;;;21.20;67.60;;;;;;5034144;28;1902;-65
2021/09/14 15:04:03;;;;;;;;;;;21.30;69.10;;;;;;5033982;28;1321;-66
2021/09/14 15:06:29;;;;;;;;;;;21.30;68.30;;;;;;5033338;28;1387;-65
2021/09/14 15:08:54;;;;;;;;;;;21.40;68.10;;;;;;5033340;28;1306;-65
2021/09/14 15:11:20;;;;;;;;;;;21.40;67.60;;;;;;5033970;28;1257;-66
2021/09/14 15:13:45;;;;;;;;;;;21.30;67.40;;;;;;5034183;28;1339;-66
2021/09/14 15:16:11;;;;;;;;;;;21.30;67.50;;;;;;5033398;28;1309;-65
2021/09/14 15:18:36;;;;;;;;;;;21.30;67.40;;;;;;5033829;28;1329;-66